sensor_id;sensor_type;location;lat;lon;timestamp;temperature;humidity
10155;DHT22;5118;48.570;7.916;2023-06-04T00:00:41;16.80;42.10
10155;DHT22;5118;48.570;7.916;2023-06-04T00:03:09;16.70;42.00
10155;DHT22;5118;48.570;7.916;2023-06-04T00:05:39;16.70;42.00
10155;DHT22;5118;48.570;7.916;2023-06-04T00:08:07;16.60;42.20
10155;DHT22;5118;48.570;7.916;2023-06-04T00:10:35;16.50;42.10
10155;DHT22;5118;48.570;7.916;2023-06-04T00:13:06;16.50;42.30
10155;DHT22;5118;48.570;7.916;2023-06-04T00:15:34;16.40;42.40
10155;DHT22;5118;48.570;7.916;2023-06-04T00:18:03;16.30;42.40
10155;DHT22;5118;48.570;7.916;2023-06-04T00:20:32;16.20;42.60
10155;DHT22;5118;48.570;7.916;2023-06-04T00:23:01;16.20;43.00
10155;DHT22;5118;48.570;7.916;2023-06-04T00:25:30;16.20;43.00
10155;DHT22;5118;48.570;7.916;2023-06-04T00:27:58;16.10;43.20
10155;DHT22;5118;48.570;7.916;2023-06-04T00:30:26;16.10;43.20
10155;DHT22;5118;48.570;7.916;2023-06-04T00:32:55;16.00;43.40
10155;DHT22;5118;48.570;7.916;2023-06-04T00:35:23;15.90;43.40
10155;DHT22;5118;48.570;7.916;2023-06-04T00:37:51;15.90;43.40
10155;DHT22;5118;48.570;7.916;2023-06-04T00:40:21;15.80;43.60
10155;DHT22;5118;48.570;7.916;2023-06-04T00:42:49;15.70;43.70
10155;DHT22;5118;48.570;7.916;2023-06-04T00:45:18;15.60;43.90
10155;DHT22;5118;48.570;7.916;2023-06-04T00:47:47;15.60;44.20
10155;DHT22;5118;48.570;7.916;2023-06-04T00:50:16;15.60;45.10
10155;DHT22;5118;48.570;7.916;2023-06-04T00:52:44;15.60;44.70
10155;DHT22;5118;48.570;7.916;2023-06-04T00:55:13;15.50;44.90
10155;DHT22;5118;48.570;7.916;2023-06-04T00:57:43;15.50;45.00
10155;DHT22;5118;48.570;7.916;2023-06-04T01:00:13;15.50;45.30
10155;DHT22;5118;48.570;7.916;2023-06-04T01:02:44;15.40;45.40
10155;DHT22;5118;48.570;7.916;2023-06-04T01:05:21;15.40;45.50
10155;DHT22;5118;48.570;7.916;2023-06-04T01:07:50;15.30;45.70
10155;DHT22;5118;48.570;7.916;2023-06-04T01:10:19;15.20;46.00
10155;DHT22;5118;48.570;7.916;2023-06-04T01:12:50;15.20;46.20
10155;DHT22;5118;48.570;7.916;2023-06-04T01:15:19;15.20;46.60
10155;DHT22;5118;48.570;7.916;2023-06-04T01:17:51;15.10;46.80
10155;DHT22;5118;48.570;7.916;2023-06-04T01:20:28;15.10;47.20
10155;DHT22;5118;48.570;7.916;2023-06-04T01:23:24;15.00;47.20
10155;DHT22;5118;48.570;7.916;2023-06-04T01:25:56;14.90;47.70
10155;DHT22;5118;48.570;7.916;2023-06-04T01:28:26;14.90;47.70
10155;DHT22;5118;48.570;7.916;2023-06-04T01:30:55;14.90;48.20
10155;DHT22;5118;48.570;7.916;2023-06-04T01:33:23;14.80;48.90
10155;DHT22;5118;48.570;7.916;2023-06-04T01:35:51;14.70;48.90
10155;DHT22;5118;48.570;7.916;2023-06-04T01:38:20;14.70;48.90
10155;DHT22;5118;48.570;7.916;2023-06-04T01:40:49;14.70;49.70
10155;DHT22;5118;48.570;7.916;2023-06-04T01:43:17;14.70;49.80
10155;DHT22;5118;48.570;7.916;2023-06-04T01:45:47;14.60;49.80
10155;DHT22;5118;48.570;7.916;2023-06-04T01:48:16;14.60;50.10
10155;DHT22;5118;48.570;7.916;2023-06-04T01:50:44;14.60;50.40
10155;DHT22;5118;48.570;7.916;2023-06-04T01:53:13;14.60;50.50
10155;DHT22;5118;48.570;7.916;2023-06-04T01:55:41;14.60;50.90
10155;DHT22;5118;48.570;7.916;2023-06-04T01:58:10;14.60;50.70
10155;DHT22;5118;48.570;7.916;2023-06-04T02:00:38;14.60;51.00
10155;DHT22;5118;48.570;7.916;2023-06-04T02:03:08;14.60;51.20
10155;DHT22;5118;48.570;7.916;2023-06-04T02:05:37;14.50;52.00
10155;DHT22;5118;48.570;7.916;2023-06-04T02:08:06;14.50;51.50
10155;DHT22;5118;48.570;7.916;2023-06-04T02:10:36;14.50;51.80
10155;DHT22;5118;48.570;7.916;2023-06-04T02:13:04;14.50;52.00
10155;DHT22;5118;48.570;7.916;2023-06-04T02:15:33;14.50;52.20
10155;DHT22;5118;48.570;7.916;2023-06-04T02:18:14;14.40;52.40
10155;DHT22;5118;48.570;7.916;2023-06-04T02:20:45;14.30;52.60
10155;DHT22;5118;48.570;7.916;2023-06-04T02:23:15;14.30;52.70
10155;DHT22;5118;48.570;7.916;2023-06-04T02:25:45;14.30;53.10
10155;DHT22;5118;48.570;7.916;2023-06-04T02:28:13;14.20;53.20
10155;DHT22;5118;48.570;7.916;2023-06-04T02:30:42;14.20;53.70
10155;DHT22;5118;48.570;7.916;2023-06-04T02:33:12;14.20;54.10
10155;DHT22;5118;48.570;7.916;2023-06-04T02:35:40;14.20;54.00
10155;DHT22;5118;48.570;7.916;2023-06-04T02:38:09;14.10;54.30
10155;DHT22;5118;48.570;7.916;2023-06-04T02:40:38;14.10;54.60
10155;DHT22;5118;48.570;7.916;2023-06-04T02:43:06;14.10;54.80
10155;DHT22;5118;48.570;7.916;2023-06-04T02:45:34;14.10;54.70
10155;DHT22;5118;48.570;7.916;2023-06-04T02:48:03;14.10;55.20
10155;DHT22;5118;48.570;7.916;2023-06-04T02:50:32;14.10;55.60
10155;DHT22;5118;48.570;7.916;2023-06-04T02:53:01;14.20;55.70
10155;DHT22;5118;48.570;7.916;2023-06-04T02:55:29;14.20;55.80
10155;DHT22;5118;48.570;7.916;2023-06-04T02:57:57;14.20;56.00
10155;DHT22;5118;48.570;7.916;2023-06-04T03:00:26;14.20;55.80
10155;DHT22;5118;48.570;7.916;2023-06-04T03:02:54;14.20;55.70
10155;DHT22;5118;48.570;7.916;2023-06-04T03:05:28;14.30;55.90
10155;DHT22;5118;48.570;7.916;2023-06-04T03:08:01;14.20;55.90
10155;DHT22;5118;48.570;7.916;2023-06-04T03:10:31;14.20;56.00
10155;DHT22;5118;48.570;7.916;2023-06-04T03:12:59;14.20;56.10
10155;DHT22;5118;48.570;7.916;2023-06-04T03:15:28;14.20;56.40
10155;DHT22;5118;48.570;7.916;2023-06-04T03:17:56;14.10;56.30
10155;DHT22;5118;48.570;7.916;2023-06-04T03:20:25;14.10;56.40
10155;DHT22;5118;48.570;7.916;2023-06-04T03:22:53;14.00;56.70
10155;DHT22;5118;48.570;7.916;2023-06-04T03:25:23;14.00;56.90
10155;DHT22;5118;48.570;7.916;2023-06-04T03:27:52;13.90;57.10
10155;DHT22;5118;48.570;7.916;2023-06-04T03:30:20;13.90;57.30
10155;DHT22;5118;48.570;7.916;2023-06-04T03:32:58;13.80;57.30
10155;DHT22;5118;48.570;7.916;2023-06-04T03:35:27;13.80;58.00
10155;DHT22;5118;48.570;7.916;2023-06-04T03:37:55;13.80;58.20
10155;DHT22;5118;48.570;7.916;2023-06-04T03:40:26;13.80;58.20
10155;DHT22;5118;48.570;7.916;2023-06-04T03:42:54;13.80;58.80
10155;DHT22;5118;48.570;7.916;2023-06-04T03:45:27;13.80;58.70
10155;DHT22;5118;48.570;7.916;2023-06-04T03:47:56;13.80;59.10
10155;DHT22;5118;48.570;7.916;2023-06-04T03:50:25;13.70;59.00
10155;DHT22;5118;48.570;7.916;2023-06-04T03:52:55;13.70;59.30
10155;DHT22;5118;48.570;7.916;2023-06-04T03:55:26;13.80;59.20
10155;DHT22;5118;48.570;7.916;2023-06-04T03:57:54;13.70;59.10
10155;DHT22;5118;48.570;7.916;2023-06-04T04:00:23;13.70;59.20
10155;DHT22;5118;48.570;7.916;2023-06-04T04:02:54;13.70;59.40
10155;DHT22;5118;48.570;7.916;2023-06-04T04:05:28;13.70;59.80
10155;DHT22;5118;48.570;7.916;2023-06-04T04:07:56;13.70;59.70
10155;DHT22;5118;48.570;7.916;2023-06-04T04:10:30;13.70;59.80
10155;DHT22;5118;48.570;7.916;2023-06-04T04:12:58;13.80;59.90
10155;DHT22;5118;48.570;7.916;2023-06-04T04:15:30;13.80;59.90
10155;DHT22;5118;48.570;7.916;2023-06-04T04:18:00;13.80;60.10
10155;DHT22;5118;48.570;7.916;2023-06-04T04:20:29;13.80;60.00
10155;DHT22;5118;48.570;7.916;2023-06-04T04:23:03;13.80;60.00
10155;DHT22;5118;48.570;7.916;2023-06-04T04:25:32;13.90;60.40
10155;DHT22;5118;48.570;7.916;2023-06-04T04:28:03;13.90;60.20
10155;DHT22;5118;48.570;7.916;2023-06-04T04:30:34;14.00;60.20
10155;DHT22;5118;48.570;7.916;2023-06-04T04:33:04;14.00;60.40
10155;DHT22;5118;48.570;7.916;2023-06-04T04:35:38;14.10;60.90
10155;DHT22;5118;48.570;7.916;2023-06-04T04:38:07;14.20;60.10
10155;DHT22;5118;48.570;7.916;2023-06-04T04:40:45;14.30;59.90
10155;DHT22;5118;48.570;7.916;2023-06-04T04:43:15;14.40;59.70
10155;DHT22;5118;48.570;7.916;2023-06-04T04:45:44;14.50;59.50
10155;DHT22;5118;48.570;7.916;2023-06-04T04:48:12;14.60;59.50
10155;DHT22;5118;48.570;7.916;2023-06-04T04:50:40;14.80;60.40
10155;DHT22;5118;48.570;7.916;2023-06-04T04:53:09;14.90;59.20
10155;DHT22;5118;48.570;7.916;2023-06-04T04:55:38;15.00;58.60
10155;DHT22;5118;48.570;7.916;2023-06-04T04:58:08;15.10;58.00
10155;DHT22;5118;48.570;7.916;2023-06-04T05:00:37;15.20;57.80
10155;DHT22;5118;48.570;7.916;2023-06-04T05:03:05;15.30;57.40
10155;DHT22;5118;48.570;7.916;2023-06-04T05:05:33;15.30;57.00
10155;DHT22;5118;48.570;7.916;2023-06-04T05:08:04;15.30;56.70
10155;DHT22;5118;48.570;7.916;2023-06-04T05:10:38;15.30;56.70
10155;DHT22;5118;48.570;7.916;2023-06-04T05:13:09;15.30;56.90
10155;DHT22;5118;48.570;7.916;2023-06-04T05:15:45;15.30;56.90
10155;DHT22;5118;48.570;7.916;2023-06-04T05:18:17;15.30;56.70
10155;DHT22;5118;48.570;7.916;2023-06-04T05:20:49;15.40;56.90
10155;DHT22;5118;48.570;7.916;2023-06-04T05:23:18;15.50;57.10
10155;DHT22;5118;48.570;7.916;2023-06-04T05:25:48;15.70;57.00
10155;DHT22;5118;48.570;7.916;2023-06-04T05:28:19;15.80;56.60
10155;DHT22;5118;48.570;7.916;2023-06-04T05:30:53;15.90;55.80
10155;DHT22;5118;48.570;7.916;2023-06-04T05:33:30;16.10;55.90
10155;DHT22;5118;48.570;7.916;2023-06-04T05:36:03;16.30;55.70
10155;DHT22;5118;48.570;7.916;2023-06-04T05:38:38;16.50;55.30
10155;DHT22;5118;48.570;7.916;2023-06-04T05:41:09;16.70;55.10
10155;DHT22;5118;48.570;7.916;2023-06-04T05:43:41;16.90;54.40
10155;DHT22;5118;48.570;7.916;2023-06-04T05:46:14;17.00;53.40
10155;DHT22;5118;48.570;7.916;2023-06-04T05:48:44;17.10;53.20
10155;DHT22;5118;48.570;7.916;2023-06-04T05:51:13;17.30;52.70
10155;DHT22;5118;48.570;7.916;2023-06-04T05:53:42;17.30;52.40
10155;DHT22;5118;48.570;7.916;2023-06-04T05:56:10;17.30;52.40
10155;DHT22;5118;48.570;7.916;2023-06-04T05:58:40;17.30;52.10
10155;DHT22;5118;48.570;7.916;2023-06-04T06:01:10;17.20;51.60
10155;DHT22;5118;48.570;7.916;2023-06-04T06:03:38;17.20;51.70
10155;DHT22;5118;48.570;7.916;2023-06-04T06:06:07;17.10;51.60
10155;DHT22;5118;48.570;7.916;2023-06-04T06:08:37;17.00;51.60
10155;DHT22;5118;48.570;7.916;2023-06-04T06:11:06;17.00;51.60
10155;DHT22;5118;48.570;7.916;2023-06-04T06:13:37;16.90;51.40
10155;DHT22;5118;48.570;7.916;2023-06-04T06:16:09;16.90;51.70
10155;DHT22;5118;48.570;7.916;2023-06-04T06:18:38;16.90;51.70
10155;DHT22;5118;48.570;7.916;2023-06-04T06:21:06;16.90;52.80
10155;DHT22;5118;48.570;7.916;2023-06-04T06:23:35;17.00;52.30
10155;DHT22;5118;48.570;7.916;2023-06-04T06:26:05;17.10;52.30
10155;DHT22;5118;48.570;7.916;2023-06-04T06:28:43;17.20;51.90
10155;DHT22;5118;48.570;7.916;2023-06-04T06:31:14;17.30;51.80
10155;DHT22;5118;48.570;7.916;2023-06-04T06:33:43;17.40;51.70
10155;DHT22;5118;48.570;7.916;2023-06-04T06:36:11;17.50;51.70
10155;DHT22;5118;48.570;7.916;2023-06-04T06:38:40;17.60;52.00
10155;DHT22;5118;48.570;7.916;2023-06-04T06:41:08;17.70;51.90
10155;DHT22;5118;48.570;7.916;2023-06-04T06:43:37;17.80;51.70
10155;DHT22;5118;48.570;7.916;2023-06-04T06:46:05;17.80;51.40
10155;DHT22;5118;48.570;7.916;2023-06-04T06:48:35;18.00;51.80
10155;DHT22;5118;48.570;7.916;2023-06-04T06:51:04;18.00;51.40
10155;DHT22;5118;48.570;7.916;2023-06-04T06:53:33;18.10;51.00
10155;DHT22;5118;48.570;7.916;2023-06-04T06:56:01;18.20;51.00
10155;DHT22;5118;48.570;7.916;2023-06-04T06:58:29;18.30;51.20
10155;DHT22;5118;48.570;7.916;2023-06-04T07:00:58;18.50;51.90
10155;DHT22;5118;48.570;7.916;2023-06-04T07:03:26;18.80;51.80
10155;DHT22;5118;48.570;7.916;2023-06-04T07:05:56;19.10;51.50
10155;DHT22;5118;48.570;7.916;2023-06-04T07:08:24;19.40;50.90
10155;DHT22;5118;48.570;7.916;2023-06-04T07:10:53;19.70;50.70
10155;DHT22;5118;48.570;7.916;2023-06-04T07:13:21;20.00;49.40
10155;DHT22;5118;48.570;7.916;2023-06-04T07:15:50;20.10;48.50
10155;DHT22;5118;48.570;7.916;2023-06-04T07:18:18;20.20;48.00
10155;DHT22;5118;48.570;7.916;2023-06-04T07:20:47;20.30;47.70
10155;DHT22;5118;48.570;7.916;2023-06-04T07:23:17;20.30;47.50
10155;DHT22;5118;48.570;7.916;2023-06-04T07:25:46;20.40;47.60
10155;DHT22;5118;48.570;7.916;2023-06-04T07:28:14;20.50;47.90
10155;DHT22;5118;48.570;7.916;2023-06-04T07:30:45;20.60;47.80
10155;DHT22;5118;48.570;7.916;2023-06-04T07:33:13;20.70;46.60
10155;DHT22;5118;48.570;7.916;2023-06-04T07:35:42;20.70;46.50
10155;DHT22;5118;48.570;7.916;2023-06-04T07:38:10;20.80;46.40
10155;DHT22;5118;48.570;7.916;2023-06-04T07:40:40;20.70;45.20
10155;DHT22;5118;48.570;7.916;2023-06-04T07:43:08;20.60;45.60
10155;DHT22;5118;48.570;7.916;2023-06-04T07:45:37;20.60;45.00
10155;DHT22;5118;48.570;7.916;2023-06-04T07:48:05;20.60;44.70
10155;DHT22;5118;48.570;7.916;2023-06-04T07:50:34;20.60;45.20
10155;DHT22;5118;48.570;7.916;2023-06-04T07:53:05;20.70;45.60
10155;DHT22;5118;48.570;7.916;2023-06-04T07:55:34;20.80;45.10
10155;DHT22;5118;48.570;7.916;2023-06-04T07:58:03;20.80;44.10
10155;DHT22;5118;48.570;7.916;2023-06-04T08:00:33;20.80;45.10
10155;DHT22;5118;48.570;7.916;2023-06-04T08:03:01;20.90;45.80
10155;DHT22;5118;48.570;7.916;2023-06-04T08:05:34;21.00;46.20
10155;DHT22;5118;48.570;7.916;2023-06-04T08:08:03;21.10;45.60
10155;DHT22;5118;48.570;7.916;2023-06-04T08:10:32;21.10;45.10
10155;DHT22;5118;48.570;7.916;2023-06-04T08:13:00;21.10;46.00
10155;DHT22;5118;48.570;7.916;2023-06-04T08:15:30;21.30;45.00
10155;DHT22;5118;48.570;7.916;2023-06-04T08:18:18;21.30;44.00
10155;DHT22;5118;48.570;7.916;2023-06-04T08:21:09;21.30;43.90
10155;DHT22;5118;48.570;7.916;2023-06-04T08:23:56;21.40;44.00
10155;DHT22;5118;48.570;7.916;2023-06-04T08:26:41;21.70;43.20
10155;DHT22;5118;48.570;7.916;2023-06-04T08:29:17;21.80;43.50
10155;DHT22;5118;48.570;7.916;2023-06-04T08:31:47;22.10;43.80
10155;DHT22;5118;48.570;7.916;2023-06-04T08:34:27;22.30;42.30
10155;DHT22;5118;48.570;7.916;2023-06-04T08:36:55;22.50;41.80
10155;DHT22;5118;48.570;7.916;2023-06-04T08:39:24;22.70;41.40
10155;DHT22;5118;48.570;7.916;2023-06-04T08:41:55;22.80;41.70
10155;DHT22;5118;48.570;7.916;2023-06-04T08:44:24;23.00;41.20
10155;DHT22;5118;48.570;7.916;2023-06-04T08:47:01;23.20;40.30
10155;DHT22;5118;48.570;7.916;2023-06-04T08:49:33;23.30;39.80
10155;DHT22;5118;48.570;7.916;2023-06-04T08:52:03;23.20;39.50
10155;DHT22;5118;48.570;7.916;2023-06-04T08:54:33;23.20;39.60
10155;DHT22;5118;48.570;7.916;2023-06-04T08:57:01;23.20;39.30
10155;DHT22;5118;48.570;7.916;2023-06-04T08:59:30;23.20;39.30
10155;DHT22;5118;48.570;7.916;2023-06-04T09:02:00;23.30;40.20
10155;DHT22;5118;48.570;7.916;2023-06-04T09:04:29;23.40;39.10
10155;DHT22;5118;48.570;7.916;2023-06-04T09:07:01;23.50;39.10
10155;DHT22;5118;48.570;7.916;2023-06-04T09:09:31;23.70;39.10
10155;DHT22;5118;48.570;7.916;2023-06-04T09:12:01;23.90;38.70
10155;DHT22;5118;48.570;7.916;2023-06-04T09:14:31;24.10;38.20
10155;DHT22;5118;48.570;7.916;2023-06-04T09:17:01;24.30;38.30
10155;DHT22;5118;48.570;7.916;2023-06-04T09:19:29;24.50;38.40
10155;DHT22;5118;48.570;7.916;2023-06-04T09:21:59;24.70;37.90
10155;DHT22;5118;48.570;7.916;2023-06-04T09:24:39;24.90;38.70
10155;DHT22;5118;48.570;7.916;2023-06-04T09:27:10;25.10;38.30
10155;DHT22;5118;48.570;7.916;2023-06-04T09:29:40;25.20;37.40
10155;DHT22;5118;48.570;7.916;2023-06-04T09:32:09;25.30;37.10
10155;DHT22;5118;48.570;7.916;2023-06-04T09:34:40;25.20;37.20
10155;DHT22;5118;48.570;7.916;2023-06-04T09:37:14;25.20;36.60
10155;DHT22;5118;48.570;7.916;2023-06-04T09:39:43;25.00;35.80
10155;DHT22;5118;48.570;7.916;2023-06-04T09:42:12;24.90;35.90
10155;DHT22;5118;48.570;7.916;2023-06-04T09:44:44;24.80;37.10
10155;DHT22;5118;48.570;7.916;2023-06-04T09:47:14;24.90;37.10
10155;DHT22;5118;48.570;7.916;2023-06-04T09:49:42;25.00;36.60
10155;DHT22;5118;48.570;7.916;2023-06-04T09:52:32;25.10;37.20
10155;DHT22;5118;48.570;7.916;2023-06-04T09:55:14;25.30;36.40
10155;DHT22;5118;48.570;7.916;2023-06-04T09:57:47;25.20;36.00
10155;DHT22;5118;48.570;7.916;2023-06-04T10:00:17;25.10;36.10
10155;DHT22;5118;48.570;7.916;2023-06-04T10:02:48;25.00;35.60
10155;DHT22;5118;48.570;7.916;2023-06-04T10:05:17;24.80;35.40
10155;DHT22;5118;48.570;7.916;2023-06-04T10:07:51;24.70;35.90
10155;DHT22;5118;48.570;7.916;2023-06-04T10:10:21;24.60;37.50
10155;DHT22;5118;48.570;7.916;2023-06-04T10:12:56;24.70;36.80
10155;DHT22;5118;48.570;7.916;2023-06-04T10:15:28;24.70;37.10
10155;DHT22;5118;48.570;7.916;2023-06-04T10:18:01;24.70;37.70
10155;DHT22;5118;48.570;7.916;2023-06-04T10:20:30;24.80;37.40
10155;DHT22;5118;48.570;7.916;2023-06-04T10:23:00;24.70;36.80
10155;DHT22;5118;48.570;7.916;2023-06-04T10:25:31;24.70;36.90
10155;DHT22;5118;48.570;7.916;2023-06-04T10:28:00;24.60;37.00
10155;DHT22;5118;48.570;7.916;2023-06-04T10:30:30;24.60;37.40
10155;DHT22;5118;48.570;7.916;2023-06-04T10:33:00;24.70;37.90
10155;DHT22;5118;48.570;7.916;2023-06-04T10:35:32;24.70;38.00
10155;DHT22;5118;48.570;7.916;2023-06-04T10:38:08;24.80;37.80
10155;DHT22;5118;48.570;7.916;2023-06-04T10:40:38;24.90;37.00
10155;DHT22;5118;48.570;7.916;2023-06-04T10:43:07;24.90;36.70
10155;DHT22;5118;48.570;7.916;2023-06-04T10:45:36;25.10;36.80
10155;DHT22;5118;48.570;7.916;2023-06-04T10:48:07;25.20;37.00
10155;DHT22;5118;48.570;7.916;2023-06-04T10:50:47;25.40;37.00
10155;DHT22;5118;48.570;7.916;2023-06-04T10:53:17;25.60;36.70
10155;DHT22;5118;48.570;7.916;2023-06-04T10:55:47;25.80;36.40
10155;DHT22;5118;48.570;7.916;2023-06-04T10:58:31;26.00;37.80
10155;DHT22;5118;48.570;7.916;2023-06-04T11:01:05;26.20;36.00
10155;DHT22;5118;48.570;7.916;2023-06-04T11:03:38;26.30;35.70
10155;DHT22;5118;48.570;7.916;2023-06-04T11:06:17;26.30;35.10
10155;DHT22;5118;48.570;7.916;2023-06-04T11:13:01;26.60;36.00
10155;DHT22;5118;48.570;7.916;2023-06-04T11:15:40;27.30;34.60
10155;DHT22;5118;48.570;7.916;2023-06-04T11:18:14;28.20;33.40
10155;DHT22;5118;48.570;7.916;2023-06-04T11:20:59;29.10;33.90
10155;DHT22;5118;48.570;7.916;2023-06-04T11:23:29;30.10;31.60
10155;DHT22;5118;48.570;7.916;2023-06-04T11:25:58;31.00;29.50
10155;DHT22;5118;48.570;7.916;2023-06-04T11:28:27;31.80;29.40
10155;DHT22;5118;48.570;7.916;2023-06-04T11:30:59;32.60;29.10
10155;DHT22;5118;48.570;7.916;2023-06-04T11:33:30;33.50;26.30
10155;DHT22;5118;48.570;7.916;2023-06-04T11:36:00;34.20;26.10
10155;DHT22;5118;48.570;7.916;2023-06-04T11:38:28;34.70;23.90
10155;DHT22;5118;48.570;7.916;2023-06-04T11:40:58;35.10;23.20
10155;DHT22;5118;48.570;7.916;2023-06-04T11:43:28;35.70;23.60
10155;DHT22;5118;48.570;7.916;2023-06-04T11:45:57;36.30;21.50
10155;DHT22;5118;48.570;7.916;2023-06-04T11:48:26;36.40;18.70
10155;DHT22;5118;48.570;7.916;2023-06-04T11:50:55;36.30;19.10
10155;DHT22;5118;48.570;7.916;2023-06-04T11:53:28;36.50;18.90
10155;DHT22;5118;48.570;7.916;2023-06-04T11:55:57;36.40;17.70
10155;DHT22;5118;48.570;7.916;2023-06-04T11:58:26;36.10;16.50
10155;DHT22;5118;48.570;7.916;2023-06-04T12:00:55;35.90;16.40
10155;DHT22;5118;48.570;7.916;2023-06-04T12:03:35;35.80;17.60
10155;DHT22;5118;48.570;7.916;2023-06-04T12:06:12;36.20;17.30
10155;DHT22;5118;48.570;7.916;2023-06-04T12:08:49;36.70;17.20
10155;DHT22;5118;48.570;7.916;2023-06-04T12:11:26;37.30;16.00
10155;DHT22;5118;48.570;7.916;2023-06-04T12:13:55;37.90;14.60
10155;DHT22;5118;48.570;7.916;2023-06-04T12:16:27;38.30;14.80
10155;DHT22;5118;48.570;7.916;2023-06-04T12:19:09;38.20;13.70
10155;DHT22;5118;48.570;7.916;2023-06-04T12:21:39;38.20;13.70
10155;DHT22;5118;48.570;7.916;2023-06-04T12:24:14;38.40;13.80
10155;DHT22;5118;48.570;7.916;2023-06-04T12:26:43;38.40;12.30
10155;DHT22;5118;48.570;7.916;2023-06-04T12:29:18;38.20;12.60
10155;DHT22;5118;48.570;7.916;2023-06-04T12:31:47;38.00;12.90
10155;DHT22;5118;48.570;7.916;2023-06-04T12:34:15;37.60;13.10
10155;DHT22;5118;48.570;7.916;2023-06-04T12:36:44;37.60;13.30
10155;DHT22;5118;48.570;7.916;2023-06-04T12:39:14;37.50;12.50
10155;DHT22;5118;48.570;7.916;2023-06-04T12:41:45;37.50;13.20
10155;DHT22;5118;48.570;7.916;2023-06-04T12:44:14;37.80;12.70
10155;DHT22;5118;48.570;7.916;2023-06-04T12:46:42;38.10;12.20
10155;DHT22;5118;48.570;7.916;2023-06-04T12:49:11;38.00;12.00
10155;DHT22;5118;48.570;7.916;2023-06-04T12:51:39;38.10;12.40
10155;DHT22;5118;48.570;7.916;2023-06-04T12:54:07;38.30;11.80
10155;DHT22;5118;48.570;7.916;2023-06-04T12:56:39;38.60;12.20
10155;DHT22;5118;48.570;7.916;2023-06-04T12:59:08;38.90;11.60
10155;DHT22;5118;48.570;7.916;2023-06-04T13:01:36;38.60;10.80
10155;DHT22;5118;48.570;7.916;2023-06-04T13:04:05;38.00;10.60
10155;DHT22;5118;48.570;7.916;2023-06-04T13:06:35;37.50;10.80
10155;DHT22;5118;48.570;7.916;2023-06-04T13:09:04;37.10;10.90
10155;DHT22;5118;48.570;7.916;2023-06-04T13:11:39;37.00;11.40
10155;DHT22;5118;48.570;7.916;2023-06-04T13:14:08;36.70;11.30
10155;DHT22;5118;48.570;7.916;2023-06-04T13:16:38;36.30;11.30
10155;DHT22;5118;48.570;7.916;2023-06-04T13:19:07;36.10;12.40
10155;DHT22;5118;48.570;7.916;2023-06-04T13:21:35;36.60;12.80
10155;DHT22;5118;48.570;7.916;2023-06-04T13:24:04;37.20;12.20
10155;DHT22;5118;48.570;7.916;2023-06-04T13:26:33;37.60;11.50
10155;DHT22;5118;48.570;7.916;2023-06-04T13:29:02;37.60;10.60
10155;DHT22;5118;48.570;7.916;2023-06-04T13:31:31;37.70;10.90
10155;DHT22;5118;48.570;7.916;2023-06-04T13:33:59;37.90;11.40
10155;DHT22;5118;48.570;7.916;2023-06-04T13:36:47;38.30;10.80
10155;DHT22;5118;48.570;7.916;2023-06-04T13:39:16;38.60;10.60
10155;DHT22;5118;48.570;7.916;2023-06-04T13:41:44;38.70;10.00
10155;DHT22;5118;48.570;7.916;2023-06-04T13:44:14;38.80;9.90
10155;DHT22;5118;48.570;7.916;2023-06-04T13:46:42;38.90;9.70
10155;DHT22;5118;48.570;7.916;2023-06-04T13:49:10;38.80;9.70
10155;DHT22;5118;48.570;7.916;2023-06-04T13:51:39;38.50;9.70
10155;DHT22;5118;48.570;7.916;2023-06-04T13:54:07;38.40;10.10
10155;DHT22;5118;48.570;7.916;2023-06-04T13:56:39;38.80;9.70
10155;DHT22;5118;48.570;7.916;2023-06-04T13:59:07;39.20;9.90
10155;DHT22;5118;48.570;7.916;2023-06-04T14:01:37;39.70;10.30
10155;DHT22;5118;48.570;7.916;2023-06-04T14:04:05;40.20;8.80
10155;DHT22;5118;48.570;7.916;2023-06-04T14:06:35;40.50;9.20
10155;DHT22;5118;48.570;7.916;2023-06-04T14:09:05;40.80;8.60
10155;DHT22;5118;48.570;7.916;2023-06-04T14:11:38;41.10;8.40
10155;DHT22;5118;48.570;7.916;2023-06-04T14:14:06;41.20;7.90
10155;DHT22;5118;48.570;7.916;2023-06-04T14:16:35;41.40;7.80
10155;DHT22;5118;48.570;7.916;2023-06-04T14:19:04;41.70;7.60
10155;DHT22;5118;48.570;7.916;2023-06-04T14:21:33;41.90;7.20
10155;DHT22;5118;48.570;7.916;2023-06-04T14:24:02;41.70;7.60
10155;DHT22;5118;48.570;7.916;2023-06-04T14:26:31;41.70;7.40
10155;DHT22;5118;48.570;7.916;2023-06-04T14:29:00;41.90;7.60
10155;DHT22;5118;48.570;7.916;2023-06-04T14:31:29;42.00;7.00
10155;DHT22;5118;48.570;7.916;2023-06-04T14:33:57;41.70;6.70
10155;DHT22;5118;48.570;7.916;2023-06-04T14:36:27;41.70;6.40
10155;DHT22;5118;48.570;7.916;2023-06-04T14:38:56;41.50;6.80
10155;DHT22;5118;48.570;7.916;2023-06-04T14:41:25;41.50;7.50
10155;DHT22;5118;48.570;7.916;2023-06-04T14:43:56;41.90;7.50
10155;DHT22;5118;48.570;7.916;2023-06-04T14:46:25;42.60;7.10
10155;DHT22;5118;48.570;7.916;2023-06-04T14:48:57;43.00;6.50
10155;DHT22;5118;48.570;7.916;2023-06-04T14:51:27;43.30;6.00
10155;DHT22;5118;48.570;7.916;2023-06-04T14:54:02;43.40;6.30
10155;DHT22;5118;48.570;7.916;2023-06-04T14:56:32;43.70;6.10
10155;DHT22;5118;48.570;7.916;2023-06-04T14:59:01;44.10;5.90
10155;DHT22;5118;48.570;7.916;2023-06-04T15:01:33;44.40;5.30
10155;DHT22;5118;48.570;7.916;2023-06-04T15:04:02;44.60;4.80
10155;DHT22;5118;48.570;7.916;2023-06-04T15:06:33;44.60;4.40
10155;DHT22;5118;48.570;7.916;2023-06-04T15:09:03;44.10;4.10
10155;DHT22;5118;48.570;7.916;2023-06-04T15:11:32;43.70;4.50
10155;DHT22;5118;48.570;7.916;2023-06-04T15:14:01;43.30;4.80
10155;DHT22;5118;48.570;7.916;2023-06-04T15:16:31;43.40;4.90
10155;DHT22;5118;48.570;7.916;2023-06-04T15:19:02;43.70;4.70
10155;DHT22;5118;48.570;7.916;2023-06-04T15:21:33;43.90;4.20
10155;DHT22;5118;48.570;7.916;2023-06-04T15:24:05;43.90;3.80
10155;DHT22;5118;48.570;7.916;2023-06-04T15:26:38;43.70;4.00
10155;DHT22;5118;48.570;7.916;2023-06-04T15:29:07;43.20;4.10
10155;DHT22;5118;48.570;7.916;2023-06-04T15:31:36;42.90;4.50
10155;DHT22;5118;48.570;7.916;2023-06-04T15:34:07;42.80;4.60
10155;DHT22;5118;48.570;7.916;2023-06-04T15:36:42;42.80;4.30
10155;DHT22;5118;48.570;7.916;2023-06-04T15:39:10;42.90;4.10
10155;DHT22;5118;48.570;7.916;2023-06-04T15:41:43;43.00;4.00
10155;DHT22;5118;48.570;7.916;2023-06-04T15:44:12;43.30;4.00
10155;DHT22;5118;48.570;7.916;2023-06-04T15:46:41;43.60;3.90
10155;DHT22;5118;48.570;7.916;2023-06-04T15:49:10;43.70;3.80
10155;DHT22;5118;48.570;7.916;2023-06-04T15:51:38;43.90;3.90
10155;DHT22;5118;48.570;7.916;2023-06-04T15:54:09;44.00;3.80
10155;DHT22;5118;48.570;7.916;2023-06-04T15:56:38;43.90;3.90
10155;DHT22;5118;48.570;7.916;2023-06-04T15:59:06;43.90;3.80
10155;DHT22;5118;48.570;7.916;2023-06-04T16:01:34;43.90;3.60
10155;DHT22;5118;48.570;7.916;2023-06-04T16:04:03;43.80;3.50
10155;DHT22;5118;48.570;7.916;2023-06-04T16:06:32;43.70;3.30
10155;DHT22;5118;48.570;7.916;2023-06-04T16:09:00;43.30;3.20
10155;DHT22;5118;48.570;7.916;2023-06-04T16:11:30;42.70;3.20